Current Weather

Chicago O'Hare International

Chicago, Illinois (KORD)

Report from: Friday, February 3, 2023 9:51 PM CST
Current time: Friday, February 3, 2023 10:48 PM CST

Nearby weather
Weather history
Weather forecast

Temperature-12.8°C (9.0°F)
Wind chill-17.5°C (0.6°F)
Dew point-21.1°C (-6.0°F)
Winds 4 kts (2.1 m/s, 4.6 mph) South-Southeast (160°)
Visibility10 mi. (16.1 km)
Clouds Few clouds 15,000 ft. (4,572 m)
Few clouds 19,000 ft. (5,791 m)
Ceiling: Broken clouds 25,000 ft. (7,620 m)
Altimeter30.48 in.Hg (1032 mB)
Relative humidity50 %
Density altitude-4,124 ft. (-1,257 m)
Sea-level pressure103.4 kPa (1034 mB, 30.53 in.Hg)
Remarks System requires maintenance
Automated weather observing station with precipitation discriminator
Flight conditions Visual Meteorological Conditions
Raw dataKORD 040351Z 16004KT 10SM FEW150 FEW190 BKN250 M13/M21 A3048 RMK AO2 SLP339 T11281211 $
An unhandled exception has occurred. See browser dev tools for details. Reload 🗙